West Glacier, MT (59936)

5:17 PM MDT on March 25, 2017 (GMT -0600)
Glacier Hills West | | Change Station

Elev 3450 ft 48.38 °N, 114.04 °W | Updated 3 seconds ago

Rain
Rain
45.1 °F
Feels Like 45 °F
N
0.0
Wind Variable Wind from WSW
Gusts 0.0 mph

Today
High -- | Low -- °F
--% Chance of Precip.
Yesterday
High -- | Low -- °F
Precip. -- in
Pressure 29.89 in
Visibility 10.0 miles
Clouds Clear
Windchill 45 °F
Dew Point 31 °F
Humidity 58%
Rainfall 0.00 in
Snow Depth Not available.
7:27 AM 7:56 PM
Waning Crescent, 6% visible
METAR KCTB 252256Z AUTO 23026G34KT 10SM CLR 09/M07 A2986 RMK AO2 PK WND 24034/2255 SLP120 T00941072
Pressure 29.89 in
Visibility 10.0 miles
Clouds Clear
Windchill 45 °F
Dew Point 31 °F
Humidity 58%
Rainfall 0.00 in
Snow Depth Not available.
7:27 AM 7:56 PM
Waning Crescent, 6% visible
METAR KCTB 252256Z AUTO 23026G34KT 10SM CLR 09/M07 A2986 RMK AO2 PK WND 24034/2255 SLP120 T00941072

Get Severe Weather Alerts

Thanks for signing up!

Be on the lookout for a verification email in your inbox.

You'll start receiving the daily forecast at 8 AM.

×

10-Day Weather Forecast

Almanac

Astronomy

Mar. 25, 2017 Rise Set
Actual Time
Civil Twilight
Nautical Twilight
Astronomical Twilight
Moon
Length of Visible Light
Length of Day
Tomorrow will be .
, % of the Moon is Illuminated

Today's Extremes

State Highs State Lows

Community

WunderPhotos

Upload Photos

1,962,540 photos uploaded!

WunderBlog® & News

Nearby

Air Quality

  Air Quality AQ Index Pollutant
Not available.

Snow Depth

Station Depth Elevation

Earthquake Activity

City Distance Mag. Time & Date
Minimum magnitude displayed is 2.5.

Earthquake Activity

City Distance Mag. Time & Date
Minimum magnitude displayed is 2.5.

Coastal Water Temperatures

Place Temperature

Stations

Nearby Weather Stations

Station Location Temp. Windchill Dew Point Humidity Wind Precip. Elev Updated Type
                   

Watches & Warnings

There are currently no watches in effect.